sensor_id;sensor_type;location;lat;lon;timestamp;P1;durP1;ratioP1;P2;durP2;ratioP2
26963;SDS011;14521;48.148;-1.656;2023-07-30T00:00:53;0.93;;;0.40;;
26963;SDS011;14521;48.148;-1.656;2023-07-30T00:04:15;1.13;;;0.40;;
26963;SDS011;14521;48.148;-1.656;2023-07-30T00:07:38;2.75;;;1.13;;
26963;SDS011;14521;48.148;-1.656;2023-07-30T00:11:00;2.97;;;0.38;;
26963;SDS011;14521;48.148;-1.656;2023-07-30T00:14:22;1.83;;;0.40;;
26963;SDS011;14521;48.148;-1.656;2023-07-30T00:17:45;0.85;;;0.40;;
26963;SDS011;14521;48.148;-1.656;2023-07-30T00:21:07;5.80;;;2.05;;
26963;SDS011;14521;48.148;-1.656;2023-07-30T00:24:30;1.83;;;0.50;;
26963;SDS011;14521;48.148;-1.656;2023-07-30T00:27:52;0.50;;;0.40;;
26963;SDS011;14521;48.148;-1.656;2023-07-30T00:31:14;1.10;;;0.50;;
26963;SDS011;14521;48.148;-1.656;2023-07-30T00:34:36;1.17;;;0.50;;
26963;SDS011;14521;48.148;-1.656;2023-07-30T00:37:59;3.13;;;0.50;;
26963;SDS011;14521;48.148;-1.656;2023-07-30T00:41:21;2.85;;;0.30;;
26963;SDS011;14521;48.148;-1.656;2023-07-30T00:44:43;1.27;;;0.50;;
26963;SDS011;14521;48.148;-1.656;2023-07-30T00:48:06;0.80;;;0.30;;
26963;SDS011;14521;48.148;-1.656;2023-07-30T00:51:28;1.20;;;0.45;;
26963;SDS011;14521;48.148;-1.656;2023-07-30T00:54:53;0.55;;;0.32;;
26963;SDS011;14521;48.148;-1.656;2023-07-30T00:58:20;0.80;;;0.35;;
26963;SDS011;14521;48.148;-1.656;2023-07-30T01:01:43;1.97;;;0.60;;
26963;SDS011;14521;48.148;-1.656;2023-07-30T01:05:07;0.63;;;0.52;;
26963;SDS011;14521;48.148;-1.656;2023-07-30T01:08:30;1.05;;;0.40;;
26963;SDS011;14521;48.148;-1.656;2023-07-30T01:11:52;0.68;;;0.45;;
26963;SDS011;14521;48.148;-1.656;2023-07-30T01:15:16;0.55;;;0.45;;
26963;SDS011;14521;48.148;-1.656;2023-07-30T01:18:39;1.40;;;0.43;;
26963;SDS011;14521;48.148;-1.656;2023-07-30T01:22:01;2.38;;;0.60;;
26963;SDS011;14521;48.148;-1.656;2023-07-30T01:25:24;3.78;;;0.55;;
26963;SDS011;14521;48.148;-1.656;2023-07-30T01:28:49;1.45;;;0.50;;
26963;SDS011;14521;48.148;-1.656;2023-07-30T01:32:15;1.42;;;0.43;;
26963;SDS011;14521;48.148;-1.656;2023-07-30T01:35:41;0.95;;;0.40;;
26963;SDS011;14521;48.148;-1.656;2023-07-30T01:39:05;12.05;;;0.63;;
26963;SDS011;14521;48.148;-1.656;2023-07-30T01:42:29;5.07;;;0.47;;
26963;SDS011;14521;48.148;-1.656;2023-07-30T01:45:52;1.25;;;0.35;;
26963;SDS011;14521;48.148;-1.656;2023-07-30T01:49:14;6.90;;;0.50;;
26963;SDS011;14521;48.148;-1.656;2023-07-30T01:52:37;2.13;;;0.98;;
26963;SDS011;14521;48.148;-1.656;2023-07-30T01:55:59;0.90;;;0.57;;
26963;SDS011;14521;48.148;-1.656;2023-07-30T01:59:22;0.70;;;0.40;;
26963;SDS011;14521;48.148;-1.656;2023-07-30T02:02:44;1.98;;;0.40;;
26963;SDS011;14521;48.148;-1.656;2023-07-30T02:06:07;2.15;;;0.60;;
26963;SDS011;14521;48.148;-1.656;2023-07-30T02:09:29;1.30;;;0.45;;
26963;SDS011;14521;48.148;-1.656;2023-07-30T02:12:51;2.25;;;0.50;;
26963;SDS011;14521;48.148;-1.656;2023-07-30T02:16:14;2.50;;;0.60;;
26963;SDS011;14521;48.148;-1.656;2023-07-30T02:19:36;1.67;;;0.30;;
26963;SDS011;14521;48.148;-1.656;2023-07-30T02:22:58;0.55;;;0.40;;
26963;SDS011;14521;48.148;-1.656;2023-07-30T02:26:20;3.58;;;0.60;;
26963;SDS011;14521;48.148;-1.656;2023-07-30T02:29:43;2.08;;;0.90;;
26963;SDS011;14521;48.148;-1.656;2023-07-30T02:33:05;1.02;;;0.75;;
26963;SDS011;14521;48.148;-1.656;2023-07-30T02:36:27;1.63;;;0.50;;
26963;SDS011;14521;48.148;-1.656;2023-07-30T02:39:50;1.55;;;0.60;;
26963;SDS011;14521;48.148;-1.656;2023-07-30T02:43:12;1.30;;;0.40;;
26963;SDS011;14521;48.148;-1.656;2023-07-30T02:46:34;1.98;;;0.40;;
26963;SDS011;14521;48.148;-1.656;2023-07-30T02:49:56;1.75;;;0.32;;
26963;SDS011;14521;48.148;-1.656;2023-07-30T02:53:19;1.83;;;0.47;;
26963;SDS011;14521;48.148;-1.656;2023-07-30T02:56:41;5.70;;;0.90;;
26963;SDS011;14521;48.148;-1.656;2023-07-30T03:00:04;3.53;;;0.68;;
26963;SDS011;14521;48.148;-1.656;2023-07-30T03:03:27;2.35;;;0.50;;
26963;SDS011;14521;48.148;-1.656;2023-07-30T03:06:50;0.73;;;0.40;;
26963;SDS011;14521;48.148;-1.656;2023-07-30T03:10:12;2.42;;;0.40;;
26963;SDS011;14521;48.148;-1.656;2023-07-30T03:13:34;2.33;;;0.52;;
26963;SDS011;14521;48.148;-1.656;2023-07-30T03:16:56;1.00;;;0.40;;
26963;SDS011;14521;48.148;-1.656;2023-07-30T03:20:19;1.85;;;0.60;;
26963;SDS011;14521;48.148;-1.656;2023-07-30T03:23:41;0.82;;;0.50;;
26963;SDS011;14521;48.148;-1.656;2023-07-30T03:27:05;1.98;;;0.38;;
26963;SDS011;14521;48.148;-1.656;2023-07-30T03:30:28;0.75;;;0.32;;
26963;SDS011;14521;48.148;-1.656;2023-07-30T03:33:52;1.33;;;0.52;;
26963;SDS011;14521;48.148;-1.656;2023-07-30T03:37:15;2.20;;;0.85;;
26963;SDS011;14521;48.148;-1.656;2023-07-30T03:40:37;3.20;;;0.90;;
26963;SDS011;14521;48.148;-1.656;2023-07-30T03:44:00;2.38;;;0.50;;
26963;SDS011;14521;48.148;-1.656;2023-07-30T03:47:22;0.75;;;0.45;;
26963;SDS011;14521;48.148;-1.656;2023-07-30T03:50:44;1.88;;;0.50;;
26963;SDS011;14521;48.148;-1.656;2023-07-30T03:54:06;1.85;;;0.40;;
26963;SDS011;14521;48.148;-1.656;2023-07-30T03:57:29;1.13;;;0.40;;
26963;SDS011;14521;48.148;-1.656;2023-07-30T04:00:53;0.85;;;0.40;;
26963;SDS011;14521;48.148;-1.656;2023-07-30T04:04:16;2.22;;;0.65;;
26963;SDS011;14521;48.148;-1.656;2023-07-30T04:07:38;3.30;;;0.60;;
26963;SDS011;14521;48.148;-1.656;2023-07-30T04:11:02;3.10;;;0.68;;
26963;SDS011;14521;48.148;-1.656;2023-07-30T04:14:24;2.67;;;0.70;;
26963;SDS011;14521;48.148;-1.656;2023-07-30T04:17:46;2.08;;;0.50;;
26963;SDS011;14521;48.148;-1.656;2023-07-30T04:21:10;2.30;;;0.47;;
26963;SDS011;14521;48.148;-1.656;2023-07-30T04:24:32;1.08;;;0.43;;
26963;SDS011;14521;48.148;-1.656;2023-07-30T04:27:55;3.53;;;1.13;;
26963;SDS011;14521;48.148;-1.656;2023-07-30T04:31:17;1.23;;;0.60;;
26963;SDS011;14521;48.148;-1.656;2023-07-30T04:34:39;1.77;;;0.70;;
26963;SDS011;14521;48.148;-1.656;2023-07-30T04:38:03;1.60;;;0.60;;
26963;SDS011;14521;48.148;-1.656;2023-07-30T04:41:25;0.82;;;0.60;;
26963;SDS011;14521;48.148;-1.656;2023-07-30T04:44:51;1.45;;;0.70;;
26963;SDS011;14521;48.148;-1.656;2023-07-30T04:48:13;2.20;;;0.50;;
26963;SDS011;14521;48.148;-1.656;2023-07-30T04:51:35;0.75;;;0.52;;
26963;SDS011;14521;48.148;-1.656;2023-07-30T04:54:58;1.83;;;0.60;;
26963;SDS011;14521;48.148;-1.656;2023-07-30T04:58:21;4.00;;;0.63;;
26963;SDS011;14521;48.148;-1.656;2023-07-30T05:01:43;4.25;;;0.80;;
26963;SDS011;14521;48.148;-1.656;2023-07-30T05:05:05;1.67;;;0.50;;
26963;SDS011;14521;48.148;-1.656;2023-07-30T05:08:28;3.47;;;0.70;;
26963;SDS011;14521;48.148;-1.656;2023-07-30T05:11:50;1.00;;;0.73;;
26963;SDS011;14521;48.148;-1.656;2023-07-30T05:15:12;0.95;;;0.50;;
26963;SDS011;14521;48.148;-1.656;2023-07-30T05:18:34;1.45;;;0.50;;
26963;SDS011;14521;48.148;-1.656;2023-07-30T05:21:57;2.45;;;0.70;;
26963;SDS011;14521;48.148;-1.656;2023-07-30T05:25:21;1.63;;;0.75;;
26963;SDS011;14521;48.148;-1.656;2023-07-30T05:28:44;1.15;;;0.60;;
26963;SDS011;14521;48.148;-1.656;2023-07-30T05:32:07;2.22;;;0.60;;
26963;SDS011;14521;48.148;-1.656;2023-07-30T05:35:30;2.67;;;0.50;;
26963;SDS011;14521;48.148;-1.656;2023-07-30T05:38:53;2.55;;;0.60;;
26963;SDS011;14521;48.148;-1.656;2023-07-30T05:42:16;3.22;;;0.60;;
26963;SDS011;14521;48.148;-1.656;2023-07-30T05:45:38;1.25;;;0.60;;
26963;SDS011;14521;48.148;-1.656;2023-07-30T05:49:00;2.38;;;0.77;;
26963;SDS011;14521;48.148;-1.656;2023-07-30T05:52:23;1.70;;;0.70;;
26963;SDS011;14521;48.148;-1.656;2023-07-30T05:55:45;1.35;;;0.55;;
26963;SDS011;14521;48.148;-1.656;2023-07-30T05:59:07;0.98;;;0.50;;
26963;SDS011;14521;48.148;-1.656;2023-07-30T06:02:29;1.27;;;0.93;;
26963;SDS011;14521;48.148;-1.656;2023-07-30T06:05:52;1.45;;;0.70;;
26963;SDS011;14521;48.148;-1.656;2023-07-30T06:09:14;5.05;;;0.80;;
26963;SDS011;14521;48.148;-1.656;2023-07-30T06:12:36;7.10;;;1.42;;
26963;SDS011;14521;48.148;-1.656;2023-07-30T06:15:58;5.70;;;1.30;;
26963;SDS011;14521;48.148;-1.656;2023-07-30T06:19:21;9.02;;;1.27;;
26963;SDS011;14521;48.148;-1.656;2023-07-30T06:22:43;10.07;;;1.30;;
26963;SDS011;14521;48.148;-1.656;2023-07-30T06:26:07;6.88;;;1.25;;
26963;SDS011;14521;48.148;-1.656;2023-07-30T06:29:29;4.53;;;1.25;;
26963;SDS011;14521;48.148;-1.656;2023-07-30T06:32:51;6.38;;;1.52;;
26963;SDS011;14521;48.148;-1.656;2023-07-30T06:36:13;10.80;;;1.38;;
26963;SDS011;14521;48.148;-1.656;2023-07-30T06:39:36;12.95;;;1.67;;
26963;SDS011;14521;48.148;-1.656;2023-07-30T06:42:58;11.23;;;1.60;;
26963;SDS011;14521;48.148;-1.656;2023-07-30T06:46:20;11.75;;;1.55;;
26963;SDS011;14521;48.148;-1.656;2023-07-30T06:49:42;3.80;;;1.17;;
26963;SDS011;14521;48.148;-1.656;2023-07-30T06:53:05;9.40;;;1.45;;
26963;SDS011;14521;48.148;-1.656;2023-07-30T06:56:27;3.53;;;1.17;;
26963;SDS011;14521;48.148;-1.656;2023-07-30T06:59:50;4.60;;;1.30;;
26963;SDS011;14521;48.148;-1.656;2023-07-30T07:03:13;11.93;;;1.15;;
26963;SDS011;14521;48.148;-1.656;2023-07-30T07:06:35;8.50;;;1.25;;
26963;SDS011;14521;48.148;-1.656;2023-07-30T07:09:57;5.90;;;1.40;;
26963;SDS011;14521;48.148;-1.656;2023-07-30T07:13:19;5.35;;;1.40;;
26963;SDS011;14521;48.148;-1.656;2023-07-30T07:16:42;9.98;;;1.33;;
26963;SDS011;14521;48.148;-1.656;2023-07-30T07:20:05;12.07;;;1.60;;
26963;SDS011;14521;48.148;-1.656;2023-07-30T07:23:28;3.13;;;1.20;;
26963;SDS011;14521;48.148;-1.656;2023-07-30T07:26:51;4.60;;;1.50;;
26963;SDS011;14521;48.148;-1.656;2023-07-30T07:30:13;3.05;;;1.15;;
26963;SDS011;14521;48.148;-1.656;2023-07-30T07:33:35;3.53;;;1.23;;
26963;SDS011;14521;48.148;-1.656;2023-07-30T07:36:58;6.28;;;1.70;;
26963;SDS011;14521;48.148;-1.656;2023-07-30T07:40:21;4.25;;;1.63;;
26963;SDS011;14521;48.148;-1.656;2023-07-30T07:43:45;6.97;;;1.25;;
26963;SDS011;14521;48.148;-1.656;2023-07-30T07:47:09;9.10;;;1.45;;
26963;SDS011;14521;48.148;-1.656;2023-07-30T07:50:31;8.10;;;1.65;;
26963;SDS011;14521;48.148;-1.656;2023-07-30T07:53:53;2.83;;;1.30;;
26963;SDS011;14521;48.148;-1.656;2023-07-30T07:57:15;11.57;;;1.98;;
26963;SDS011;14521;48.148;-1.656;2023-07-30T08:00:38;8.38;;;1.85;;
26963;SDS011;14521;48.148;-1.656;2023-07-30T08:04:00;4.35;;;1.70;;
26963;SDS011;14521;48.148;-1.656;2023-07-30T08:07:23;7.78;;;1.60;;
26963;SDS011;14521;48.148;-1.656;2023-07-30T08:10:45;14.13;;;2.45;;
26963;SDS011;14521;48.148;-1.656;2023-07-30T08:14:09;4.97;;;1.85;;
26963;SDS011;14521;48.148;-1.656;2023-07-30T08:17:31;6.90;;;2.40;;
26963;SDS011;14521;48.148;-1.656;2023-07-30T08:20:53;14.98;;;2.35;;
26963;SDS011;14521;48.148;-1.656;2023-07-30T08:24:16;9.38;;;2.38;;
26963;SDS011;14521;48.148;-1.656;2023-07-30T08:27:38;7.15;;;2.45;;
26963;SDS011;14521;48.148;-1.656;2023-07-30T08:31:01;11.63;;;2.38;;
26963;SDS011;14521;48.148;-1.656;2023-07-30T08:34:23;11.60;;;2.45;;
26963;SDS011;14521;48.148;-1.656;2023-07-30T08:37:46;6.32;;;2.25;;
26963;SDS011;14521;48.148;-1.656;2023-07-30T08:41:10;11.90;;;2.30;;
26963;SDS011;14521;48.148;-1.656;2023-07-30T08:44:32;8.63;;;2.28;;
26963;SDS011;14521;48.148;-1.656;2023-07-30T08:47:54;5.75;;;2.28;;
26963;SDS011;14521;48.148;-1.656;2023-07-30T08:51:17;9.52;;;2.75;;
26963;SDS011;14521;48.148;-1.656;2023-07-30T08:54:40;11.13;;;2.53;;
26963;SDS011;14521;48.148;-1.656;2023-07-30T08:58:03;7.65;;;2.40;;
26963;SDS011;14521;48.148;-1.656;2023-07-30T09:01:29;6.30;;;2.55;;
26963;SDS011;14521;48.148;-1.656;2023-07-30T09:04:56;9.20;;;2.35;;
26963;SDS011;14521;48.148;-1.656;2023-07-30T09:08:21;6.00;;;1.80;;
26963;SDS011;14521;48.148;-1.656;2023-07-30T09:11:50;7.65;;;2.33;;
26963;SDS011;14521;48.148;-1.656;2023-07-30T09:15:14;7.35;;;2.63;;
26963;SDS011;14521;48.148;-1.656;2023-07-30T09:18:39;5.35;;;2.50;;
26963;SDS011;14521;48.148;-1.656;2023-07-30T09:22:11;9.48;;;2.83;;
26963;SDS011;14521;48.148;-1.656;2023-07-30T09:25:33;8.13;;;2.22;;
26963;SDS011;14521;48.148;-1.656;2023-07-30T09:28:56;13.75;;;2.45;;
26963;SDS011;14521;48.148;-1.656;2023-07-30T09:32:19;11.65;;;2.88;;
26963;SDS011;14521;48.148;-1.656;2023-07-30T09:35:42;2.60;;;1.88;;
26963;SDS011;14521;48.148;-1.656;2023-07-30T09:39:13;11.90;;;3.15;;
26963;SDS011;14521;48.148;-1.656;2023-07-30T09:42:42;6.55;;;2.30;;
26963;SDS011;14521;48.148;-1.656;2023-07-30T09:46:06;7.05;;;2.58;;
26963;SDS011;14521;48.148;-1.656;2023-07-30T09:49:29;7.97;;;2.42;;
26963;SDS011;14521;48.148;-1.656;2023-07-30T09:52:51;13.73;;;2.60;;
26963;SDS011;14521;48.148;-1.656;2023-07-30T09:56:15;8.60;;;2.78;;
26963;SDS011;14521;48.148;-1.656;2023-07-30T09:59:38;10.75;;;2.33;;
26963;SDS011;14521;48.148;-1.656;2023-07-30T10:03:00;13.38;;;2.78;;
26963;SDS011;14521;48.148;-1.656;2023-07-30T10:06:28;6.03;;;2.10;;
26963;SDS011;14521;48.148;-1.656;2023-07-30T10:09:53;7.45;;;2.65;;
26963;SDS011;14521;48.148;-1.656;2023-07-30T10:13:20;7.20;;;2.45;;
26963;SDS011;14521;48.148;-1.656;2023-07-30T10:16:52;5.53;;;1.95;;
26963;SDS011;14521;48.148;-1.656;2023-07-30T10:23:46;11.40;;;2.42;;
26963;SDS011;14521;48.148;-1.656;2023-07-30T10:27:11;7.07;;;2.47;;
26963;SDS011;14521;48.148;-1.656;2023-07-30T10:30:49;4.83;;;2.17;;
26963;SDS011;14521;48.148;-1.656;2023-07-30T10:34:44;8.45;;;2.50;;
26963;SDS011;14521;48.148;-1.656;2023-07-30T10:38:20;4.07;;;2.40;;
26963;SDS011;14521;48.148;-1.656;2023-07-30T10:41:48;7.38;;;2.47;;
26963;SDS011;14521;48.148;-1.656;2023-07-30T10:45:11;6.32;;;2.53;;
26963;SDS011;14521;48.148;-1.656;2023-07-30T10:48:38;5.57;;;2.30;;
26963;SDS011;14521;48.148;-1.656;2023-07-30T10:52:01;5.97;;;2.53;;
26963;SDS011;14521;48.148;-1.656;2023-07-30T10:55:29;5.93;;;2.45;;
26963;SDS011;14521;48.148;-1.656;2023-07-30T10:58:52;9.07;;;3.00;;
26963;SDS011;14521;48.148;-1.656;2023-07-30T11:02:16;7.28;;;2.47;;
26963;SDS011;14521;48.148;-1.656;2023-07-30T11:05:38;5.10;;;2.15;;
26963;SDS011;14521;48.148;-1.656;2023-07-30T11:09:00;13.52;;;2.50;;
26963;SDS011;14521;48.148;-1.656;2023-07-30T11:12:23;7.47;;;2.30;;
26963;SDS011;14521;48.148;-1.656;2023-07-30T11:15:45;10.38;;;2.00;;
26963;SDS011;14521;48.148;-1.656;2023-07-30T11:19:08;8.85;;;2.40;;
26963;SDS011;14521;48.148;-1.656;2023-07-30T11:22:32;11.93;;;2.13;;
26963;SDS011;14521;48.148;-1.656;2023-07-30T11:25:54;6.97;;;2.75;;
26963;SDS011;14521;48.148;-1.656;2023-07-30T11:29:17;4.32;;;2.42;;
26963;SDS011;14521;48.148;-1.656;2023-07-30T11:32:44;8.10;;;2.90;;
26963;SDS011;14521;48.148;-1.656;2023-07-30T11:36:08;8.02;;;2.58;;
26963;SDS011;14521;48.148;-1.656;2023-07-30T11:39:33;8.20;;;2.67;;
26963;SDS011;14521;48.148;-1.656;2023-07-30T11:42:55;10.45;;;2.30;;
26963;SDS011;14521;48.148;-1.656;2023-07-30T11:46:18;7.15;;;1.80;;
26963;SDS011;14521;48.148;-1.656;2023-07-30T11:49:42;4.13;;;1.47;;
26963;SDS011;14521;48.148;-1.656;2023-07-30T11:53:17;3.08;;;1.85;;
26963;SDS011;14521;48.148;-1.656;2023-07-30T11:56:40;2.08;;;1.92;;
26963;SDS011;14521;48.148;-1.656;2023-07-30T12:00:02;2.65;;;1.42;;
26963;SDS011;14521;48.148;-1.656;2023-07-30T12:03:32;4.85;;;2.00;;
26963;SDS011;14521;48.148;-1.656;2023-07-30T12:06:55;4.95;;;1.60;;
26963;SDS011;14521;48.148;-1.656;2023-07-30T12:10:17;3.70;;;1.80;;
26963;SDS011;14521;48.148;-1.656;2023-07-30T12:13:42;3.20;;;1.60;;
26963;SDS011;14521;48.148;-1.656;2023-07-30T12:17:08;5.47;;;1.52;;
26963;SDS011;14521;48.148;-1.656;2023-07-30T12:20:31;4.03;;;1.88;;
26963;SDS011;14521;48.148;-1.656;2023-07-30T12:23:53;3.28;;;1.70;;
26963;SDS011;14521;48.148;-1.656;2023-07-30T12:27:15;3.63;;;1.88;;
26963;SDS011;14521;48.148;-1.656;2023-07-30T12:30:38;2.88;;;1.73;;
26963;SDS011;14521;48.148;-1.656;2023-07-30T12:34:00;3.50;;;1.75;;
26963;SDS011;14521;48.148;-1.656;2023-07-30T12:37:22;7.43;;;1.90;;
26963;SDS011;14521;48.148;-1.656;2023-07-30T12:40:45;9.85;;;1.65;;
26963;SDS011;14521;48.148;-1.656;2023-07-30T12:44:07;3.05;;;1.60;;
26963;SDS011;14521;48.148;-1.656;2023-07-30T12:47:31;8.53;;;2.60;;
26963;SDS011;14521;48.148;-1.656;2023-07-30T12:50:53;6.65;;;2.25;;
26963;SDS011;14521;48.148;-1.656;2023-07-30T12:57:41;5.13;;;1.60;;
26963;SDS011;14521;48.148;-1.656;2023-07-30T13:01:03;3.30;;;1.58;;
26963;SDS011;14521;48.148;-1.656;2023-07-30T13:04:26;6.75;;;1.90;;
26963;SDS011;14521;48.148;-1.656;2023-07-30T13:07:49;3.58;;;1.55;;
26963;SDS011;14521;48.148;-1.656;2023-07-30T13:11:11;3.58;;;1.63;;
26963;SDS011;14521;48.148;-1.656;2023-07-30T13:14:34;9.13;;;2.05;;
26963;SDS011;14521;48.148;-1.656;2023-07-30T13:17:56;5.43;;;1.75;;
26963;SDS011;14521;48.148;-1.656;2023-07-30T13:21:18;7.47;;;1.67;;
26963;SDS011;14521;48.148;-1.656;2023-07-30T13:24:40;1.63;;;1.40;;
26963;SDS011;14521;48.148;-1.656;2023-07-30T13:28:03;7.68;;;1.60;;
26963;SDS011;14521;48.148;-1.656;2023-07-30T13:31:25;3.75;;;1.52;;
26963;SDS011;14521;48.148;-1.656;2023-07-30T13:34:47;2.10;;;1.50;;
26963;SDS011;14521;48.148;-1.656;2023-07-30T13:38:10;5.32;;;1.73;;
26963;SDS011;14521;48.148;-1.656;2023-07-30T13:41:32;4.68;;;1.48;;
26963;SDS011;14521;48.148;-1.656;2023-07-30T13:44:54;4.60;;;1.65;;
26963;SDS011;14521;48.148;-1.656;2023-07-30T13:48:16;6.05;;;1.45;;
26963;SDS011;14521;48.148;-1.656;2023-07-30T13:51:39;1.88;;;1.73;;
26963;SDS011;14521;48.148;-1.656;2023-07-30T13:55:02;5.13;;;1.20;;
26963;SDS011;14521;48.148;-1.656;2023-07-30T13:58:24;1.98;;;1.38;;
26963;SDS011;14521;48.148;-1.656;2023-07-30T14:01:47;3.63;;;1.35;;
26963;SDS011;14521;48.148;-1.656;2023-07-30T14:05:11;2.65;;;1.30;;
26963;SDS011;14521;48.148;-1.656;2023-07-30T14:08:33;2.53;;;1.30;;
26963;SDS011;14521;48.148;-1.656;2023-07-30T14:11:56;4.00;;;1.60;;
26963;SDS011;14521;48.148;-1.656;2023-07-30T14:15:18;8.23;;;1.40;;
26963;SDS011;14521;48.148;-1.656;2023-07-30T14:18:40;1.83;;;1.45;;
26963;SDS011;14521;48.148;-1.656;2023-07-30T14:22:02;2.78;;;1.10;;
26963;SDS011;14521;48.148;-1.656;2023-07-30T14:25:25;2.22;;;1.25;;
26963;SDS011;14521;48.148;-1.656;2023-07-30T14:28:47;2.50;;;1.50;;
26963;SDS011;14521;48.148;-1.656;2023-07-30T14:32:09;4.00;;;1.30;;
26963;SDS011;14521;48.148;-1.656;2023-07-30T14:35:32;4.65;;;1.45;;
26963;SDS011;14521;48.148;-1.656;2023-07-30T14:38:54;3.80;;;1.23;;
26963;SDS011;14521;48.148;-1.656;2023-07-30T14:42:16;3.80;;;1.33;;
26963;SDS011;14521;48.148;-1.656;2023-07-30T14:45:38;4.15;;;2.15;;
26963;SDS011;14521;48.148;-1.656;2023-07-30T14:49:01;2.75;;;0.90;;
26963;SDS011;14521;48.148;-1.656;2023-07-30T14:52:23;4.32;;;1.30;;
26963;SDS011;14521;48.148;-1.656;2023-07-30T14:55:47;5.82;;;1.58;;
26963;SDS011;14521;48.148;-1.656;2023-07-30T14:59:09;2.72;;;1.50;;
26963;SDS011;14521;48.148;-1.656;2023-07-30T15:02:32;3.22;;;1.38;;
26963;SDS011;14521;48.148;-1.656;2023-07-30T15:05:54;7.88;;;1.27;;
26963;SDS011;14521;48.148;-1.656;2023-07-30T15:09:16;4.15;;;1.33;;
26963;SDS011;14521;48.148;-1.656;2023-07-30T15:12:39;2.80;;;1.50;;
26963;SDS011;14521;48.148;-1.656;2023-07-30T15:16:01;4.75;;;1.70;;
26963;SDS011;14521;48.148;-1.656;2023-07-30T15:19:23;3.70;;;1.23;;
26963;SDS011;14521;48.148;-1.656;2023-07-30T15:22:46;3.40;;;1.50;;
26963;SDS011;14521;48.148;-1.656;2023-07-30T15:26:08;4.57;;;1.67;;
26963;SDS011;14521;48.148;-1.656;2023-07-30T15:29:30;5.00;;;1.70;;
26963;SDS011;14521;48.148;-1.656;2023-07-30T15:32:52;9.52;;;1.30;;
26963;SDS011;14521;48.148;-1.656;2023-07-30T15:36:15;3.38;;;1.30;;
26963;SDS011;14521;48.148;-1.656;2023-07-30T15:39:37;2.60;;;1.30;;
26963;SDS011;14521;48.148;-1.656;2023-07-30T15:43:00;1.98;;;1.45;;
26963;SDS011;14521;48.148;-1.656;2023-07-30T15:46:23;3.15;;;1.70;;
26963;SDS011;14521;48.148;-1.656;2023-07-30T15:49:45;3.92;;;1.88;;
26963;SDS011;14521;48.148;-1.656;2023-07-30T15:53:07;4.05;;;1.50;;
26963;SDS011;14521;48.148;-1.656;2023-07-30T15:56:29;3.97;;;1.48;;
26963;SDS011;14521;48.148;-1.656;2023-07-30T15:59:52;10.27;;;1.80;;
26963;SDS011;14521;48.148;-1.656;2023-07-30T16:03:14;2.65;;;1.52;;
26963;SDS011;14521;48.148;-1.656;2023-07-30T16:06:36;2.15;;;1.25;;
26963;SDS011;14521;48.148;-1.656;2023-07-30T16:09:59;2.88;;;1.48;;
26963;SDS011;14521;48.148;-1.656;2023-07-30T16:13:21;1.90;;;1.52;;
26963;SDS011;14521;48.148;-1.656;2023-07-30T16:16:44;3.33;;;1.38;;
26963;SDS011;14521;48.148;-1.656;2023-07-30T16:20:06;5.82;;;1.40;;
26963;SDS011;14521;48.148;-1.656;2023-07-30T16:23:30;1.88;;;1.75;;
26963;SDS011;14521;48.148;-1.656;2023-07-30T16:26:53;2.13;;;1.38;;
26963;SDS011;14521;48.148;-1.656;2023-07-30T16:30:15;11.32;;;1.90;;
26963;SDS011;14521;48.148;-1.656;2023-07-30T16:33:37;1.85;;;1.08;;
26963;SDS011;14521;48.148;-1.656;2023-07-30T16:37:00;4.07;;;1.42;;
26963;SDS011;14521;48.148;-1.656;2023-07-30T16:40:22;3.95;;;1.50;;
26963;SDS011;14521;48.148;-1.656;2023-07-30T16:43:44;2.33;;;1.15;;
26963;SDS011;14521;48.148;-1.656;2023-07-30T16:47:07;2.00;;;1.40;;
26963;SDS011;14521;48.148;-1.656;2023-07-30T16:50:29;2.72;;;1.48;;
26963;SDS011;14521;48.148;-1.656;2023-07-30T16:53:52;1.73;;;1.25;;
26963;SDS011;14521;48.148;-1.656;2023-07-30T16:57:14;3.22;;;1.30;;
26963;SDS011;14521;48.148;-1.656;2023-07-30T17:00:36;4.82;;;1.70;;
26963;SDS011;14521;48.148;-1.656;2023-07-30T17:03:58;1.80;;;1.30;;
26963;SDS011;14521;48.148;-1.656;2023-07-30T17:07:21;1.35;;;1.10;;
26963;SDS011;14521;48.148;-1.656;2023-07-30T17:10:43;2.55;;;1.52;;
26963;SDS011;14521;48.148;-1.656;2023-07-30T17:14:05;5.95;;;1.17;;
26963;SDS011;14521;48.148;-1.656;2023-07-30T17:17:28;1.20;;;1.10;;
26963;SDS011;14521;48.148;-1.656;2023-07-30T17:20:56;6.57;;;1.33;;
26963;SDS011;14521;48.148;-1.656;2023-07-30T17:24:19;3.60;;;1.52;;
26963;SDS011;14521;48.148;-1.656;2023-07-30T17:27:42;2.72;;;1.23;;
26963;SDS011;14521;48.148;-1.656;2023-07-30T17:31:04;1.70;;;1.52;;
26963;SDS011;14521;48.148;-1.656;2023-07-30T17:34:26;1.10;;;1.00;;
26963;SDS011;14521;48.148;-1.656;2023-07-30T17:37:48;1.67;;;1.33;;
26963;SDS011;14521;48.148;-1.656;2023-07-30T17:41:11;1.38;;;1.27;;
26963;SDS011;14521;48.148;-1.656;2023-07-30T17:44:33;5.68;;;1.30;;
26963;SDS011;14521;48.148;-1.656;2023-07-30T17:47:55;2.17;;;1.50;;
26963;SDS011;14521;48.148;-1.656;2023-07-30T17:51:18;3.30;;;1.20;;
26963;SDS011;14521;48.148;-1.656;2023-07-30T17:54:40;1.98;;;1.10;;
26963;SDS011;14521;48.148;-1.656;2023-07-30T17:58:02;1.92;;;1.10;;
26963;SDS011;14521;48.148;-1.656;2023-07-30T18:01:25;11.25;;;1.02;;
26963;SDS011;14521;48.148;-1.656;2023-07-30T18:04:47;4.25;;;1.15;;
26963;SDS011;14521;48.148;-1.656;2023-07-30T18:08:09;1.83;;;1.55;;
26963;SDS011;14521;48.148;-1.656;2023-07-30T18:11:32;1.73;;;1.48;;
26963;SDS011;14521;48.148;-1.656;2023-07-30T18:14:54;2.35;;;1.17;;
26963;SDS011;14521;48.148;-1.656;2023-07-30T18:18:16;3.25;;;1.08;;
26963;SDS011;14521;48.148;-1.656;2023-07-30T18:21:41;5.40;;;1.67;;
26963;SDS011;14521;48.148;-1.656;2023-07-30T18:25:04;1.95;;;1.45;;
26963;SDS011;14521;48.148;-1.656;2023-07-30T18:28:26;1.33;;;1.23;;
26963;SDS011;14521;48.148;-1.656;2023-07-30T18:31:48;4.22;;;1.33;;
26963;SDS011;14521;48.148;-1.656;2023-07-30T18:35:11;67.30;;;12.80;;
26963;SDS011;14521;48.148;-1.656;2023-07-30T18:38:33;34.13;;;7.80;;
26963;SDS011;14521;48.148;-1.656;2023-07-30T18:41:56;10.60;;;3.83;;
26963;SDS011;14521;48.148;-1.656;2023-07-30T18:45:18;22.73;;;5.30;;
26963;SDS011;14521;48.148;-1.656;2023-07-30T18:48:40;23.27;;;4.63;;
26963;SDS011;14521;48.148;-1.656;2023-07-30T18:52:03;23.55;;;3.83;;
26963;SDS011;14521;48.148;-1.656;2023-07-30T18:55:25;22.40;;;4.00;;
26963;SDS011;14521;48.148;-1.656;2023-07-30T18:58:47;14.65;;;3.13;;
26963;SDS011;14521;48.148;-1.656;2023-07-30T19:02:10;11.93;;;2.45;;
26963;SDS011;14521;48.148;-1.656;2023-07-30T19:05:32;8.45;;;3.00;;
26963;SDS011;14521;48.148;-1.656;2023-07-30T19:08:54;12.90;;;3.13;;
26963;SDS011;14521;48.148;-1.656;2023-07-30T19:12:17;17.38;;;3.60;;
26963;SDS011;14521;48.148;-1.656;2023-07-30T19:15:39;7.72;;;3.05;;
26963;SDS011;14521;48.148;-1.656;2023-07-30T19:19:01;14.07;;;2.90;;
26963;SDS011;14521;48.148;-1.656;2023-07-30T19:22:24;5.72;;;2.25;;
26963;SDS011;14521;48.148;-1.656;2023-07-30T19:25:47;10.15;;;2.60;;
26963;SDS011;14521;48.148;-1.656;2023-07-30T19:29:10;7.43;;;2.30;;
26963;SDS011;14521;48.148;-1.656;2023-07-30T19:32:32;7.53;;;2.47;;
26963;SDS011;14521;48.148;-1.656;2023-07-30T19:35:54;7.13;;;2.13;;
26963;SDS011;14521;48.148;-1.656;2023-07-30T19:39:16;7.40;;;2.00;;
26963;SDS011;14521;48.148;-1.656;2023-07-30T19:42:39;5.90;;;2.20;;
26963;SDS011;14521;48.148;-1.656;2023-07-30T19:46:01;9.20;;;2.25;;
26963;SDS011;14521;48.148;-1.656;2023-07-30T19:49:25;6.68;;;2.10;;
26963;SDS011;14521;48.148;-1.656;2023-07-30T19:52:47;8.43;;;1.73;;
26963;SDS011;14521;48.148;-1.656;2023-07-30T19:56:09;8.25;;;2.42;;
26963;SDS011;14521;48.148;-1.656;2023-07-30T19:59:32;6.88;;;1.98;;
26963;SDS011;14521;48.148;-1.656;2023-07-30T20:02:54;6.00;;;1.88;;
26963;SDS011;14521;48.148;-1.656;2023-07-30T20:06:17;7.15;;;2.30;;
26963;SDS011;14521;48.148;-1.656;2023-07-30T20:09:40;6.05;;;1.70;;